Time,TemperatureF,DewpointF,PressureIn,WindDirection,WindDirectionDegrees,WindSpeedMPH,WindSpeedGustMPH,Humidity,HourlyPrecipIn,Conditions,Clouds,dailyrainin,SoftwareType,DateUTC
2013-01-10 00:04:00,53.4,52.3,30.35,NNE,25,0.0,0.0,96,0.00,,,0.00,Wunderground v.1.15,2013-01-10 05:04:00,
2013-01-10 00:14:00,53.0,51.9,30.35,NNE,25,0.0,0.0,96,0.00,,,0.00,Wunderground v.1.15,2013-01-10 05:14:00,
2013-01-10 00:24:00,52.6,51.5,30.35,NNE,25,0.0,0.0,96,0.00,,,0.00,Wunderground v.1.15,2013-01-10 05:24:00,
2013-01-10 00:34:00,52.4,51.6,30.35,NNE,25,0.0,0.0,97,0.00,,,0.00,Wunderground v.1.15,2013-01-10 05:34:00,
2013-01-10 00:44:00,52.2,51.4,30.35,NNE,25,0.0,0.0,97,0.00,,,0.00,Wunderground v.1.15,2013-01-10 05:44:00,
2013-01-10 00:54:00,52.0,51.2,30.34,NNE,25,0.0,0.0,97,0.00,,,0.00,Wunderground v.1.15,2013-01-10 05:54:00,
2013-01-10 01:04:00,51.8,51.0,30.34,NNE,25,0.0,0.0,97,0.00,,,0.00,Wunderground v.1.15,2013-01-10 06:04:00,
2013-01-10 01:14:00,51.7,50.9,30.34,NNE,25,0.0,0.0,97,0.00,,,0.00,Wunderground v.1.15,2013-01-10 06:14:00,
2013-01-10 01:24:00,51.6,50.8,30.34,NNE,25,0.0,0.0,97,0.00,,,0.00,Wunderground v.1.15,2013-01-10 06:24:00,
2013-01-10 01:34:00,51.4,50.6,30.34,NNE,25,0.0,0.0,97,0.00,,,0.00,Wunderground v.1.15,2013-01-10 06:34:00,
2013-01-10 01:44:00,51.3,50.5,30.34,NNE,25,0.0,0.0,97,0.00,,,0.00,Wunderground v.1.15,2013-01-10 06:44:00,
2013-01-10 01:54:00,51.2,50.4,30.34,NNE,25,0.0,0.0,97,0.00,,,0.00,Wunderground v.1.15,2013-01-10 06:54:00,
2013-01-10 02:04:00,51.1,50.3,30.35,NNE,25,0.0,0.0,97,0.00,,,0.00,Wunderground v.1.15,2013-01-10 07:04:00,
2013-01-10 02:14:00,50.9,50.1,30.35,NNE,25,0.0,0.0,97,0.00,,,0.00,Wunderground v.1.15,2013-01-10 07:14:00,
2013-01-10 02:24:00,50.9,50.1,30.34,NNE,25,0.0,0.0,97,0.00,,,0.00,Wunderground v.1.15,2013-01-10 07:24:00,
2013-01-10 02:34:00,50.8,50.0,30.35,NNE,25,0.0,0.0,97,0.00,,,0.00,Wunderground v.1.15,2013-01-10 07:34:00,
2013-01-10 02:44:00,50.7,49.9,30.35,NNE,25,0.0,0.0,97,0.00,,,0.00,Wunderground v.1.15,2013-01-10 07:44:00,
2013-01-10 02:54:00,50.8,50.3,30.34,NNE,25,0.0,0.0,98,0.00,,,0.00,Wunderground v.1.15,2013-01-10 07:54:00,
2013-01-10 03:04:00,50.7,50.2,30.35,NNE,25,0.0,0.0,98,0.00,,,0.00,Wunderground v.1.15,2013-01-10 08:04:00,
2013-01-10 03:14:00,50.6,50.1,30.35,NNE,25,0.0,0.0,98,0.00,,,0.00,Wunderground v.1.15,2013-01-10 08:14:00,
2013-01-10 03:24:00,50.3,49.8,30.35,NNE,25,0.0,0.0,98,0.00,,,0.00,Wunderground v.1.15,2013-01-10 08:24:00,
2013-01-10 03:34:00,50.1,49.6,30.36,NNE,25,0.0,0.0,98,0.00,,,0.00,Wunderground v.1.15,2013-01-10 08:34:00,
2013-01-10 03:44:00,49.9,49.4,30.36,NNE,25,0.0,0.0,98,0.00,,,0.00,Wunderground v.1.15,2013-01-10 08:44:00,
2013-01-10 03:54:00,50.0,49.5,30.35,NNE,25,0.0,0.0,98,0.00,,,0.00,Wunderground v.1.15,2013-01-10 08:54:00,
2013-01-10 04:05:00,49.9,49.4,30.35,NNE,25,0.0,0.0,98,0.00,,,0.00,Wunderground v.1.15,2013-01-10 09:05:00,
2013-01-10 04:15:00,49.9,49.4,30.35,NNE,25,0.0,0.0,98,0.00,,,0.00,Wunderground v.1.15,2013-01-10 09:15:00,
2013-01-10 04:25:00,49.7,49.2,30.35,NNE,25,0.0,0.0,98,0.00,,,0.00,Wunderground v.1.15,2013-01-10 09:25:00,
2013-01-10 04:35:00,49.6,49.1,30.34,NNE,25,0.0,0.0,98,0.00,,,0.00,Wunderground v.1.15,2013-01-10 09:35:00,
2013-01-10 04:45:00,49.4,48.9,30.34,NNE,25,0.0,0.0,98,0.00,,,0.00,Wunderground v.1.15,2013-01-10 09:45:00,
2013-01-10 04:55:00,49.4,48.9,30.34,NNE,25,0.0,0.0,98,0.00,,,0.00,Wunderground v.1.15,2013-01-10 09:55:00,
2013-01-10 05:04:00,49.2,48.7,30.34,NNE,25,0.0,0.0,98,0.00,,,0.00,Wunderground v.1.15,2013-01-10 10:04:00,
2013-01-10 05:14:00,48.9,48.4,30.34,NNE,25,0.0,0.0,98,0.00,,,0.00,Wunderground v.1.15,2013-01-10 10:14:00,
2013-01-10 05:24:00,48.7,48.2,30.34,NNE,25,0.0,0.0,98,0.00,,,0.00,Wunderground v.1.15,2013-01-10 10:24:00,
2013-01-10 05:34:00,48.7,48.2,30.34,NNE,25,0.0,0.0,98,0.00,,,0.00,Wunderground v.1.15,2013-01-10 10:34:00,
2013-01-10 05:44:00,48.5,48.0,30.34,NNE,25,0.0,0.0,98,0.00,,,0.00,Wunderground v.1.15,2013-01-10 10:44:00,
2013-01-10 05:54:00,48.6,48.1,30.34,NNE,25,0.0,0.0,98,0.00,,,0.00,Wunderground v.1.15,2013-01-10 10:54:00,
2013-01-10 06:04:00,48.4,47.9,30.35,NNE,25,0.0,0.0,98,0.00,,,0.00,Wunderground v.1.15,2013-01-10 11:04:00,
2013-01-10 06:14:00,48.2,47.7,30.35,NNE,25,0.0,0.0,98,0.00,,,0.00,Wunderground v.1.15,2013-01-10 11:14:00,
2013-01-10 06:24:00,48.1,47.6,30.35,NNE,25,0.0,0.0,98,0.00,,,0.00,Wunderground v.1.15,2013-01-10 11:24:00,
2013-01-10 06:34:00,48.0,47.5,30.35,NNE,25,0.0,0.0,98,0.00,,,0.00,Wunderground v.1.15,2013-01-10 11:34:00,
2013-01-10 06:44:00,47.8,47.3,30.35,NNE,25,0.0,0.0,98,0.00,,,0.00,Wunderground v.1.15,2013-01-10 11:44:00,
2013-01-10 06:54:00,47.7,47.2,30.35,NNE,25,0.0,0.0,98,0.00,,,0.00,Wunderground v.1.15,2013-01-10 11:54:00,
2013-01-10 07:04:00,47.8,47.3,30.35,NNE,25,0.0,0.0,98,0.00,,,0.00,Wunderground v.1.15,2013-01-10 12:04:00,
2013-01-10 07:14:00,47.9,47.4,30.35,NNE,25,0.0,0.0,98,0.00,,,0.00,Wunderground v.1.15,2013-01-10 12:14:00,
2013-01-10 07:24:00,47.8,47.3,30.36,NNE,25,0.0,0.0,98,0.00,,,0.00,Wunderground v.1.15,2013-01-10 12:24:00,
2013-01-10 07:34:00,47.6,47.1,30.36,NNE,25,0.0,0.0,98,0.00,,,0.00,Wunderground v.1.15,2013-01-10 12:34:00,
2013-01-10 07:44:00,47.4,46.9,30.36,NNE,25,0.0,0.0,98,0.00,,,0.00,Wunderground v.1.15,2013-01-10 12:44:00,
2013-01-10 07:54:00,47.4,46.9,30.36,NNE,25,0.0,0.0,98,0.00,,,0.00,Wunderground v.1.15,2013-01-10 12:54:00,
2013-01-10 08:04:00,47.8,47.3,30.37,NNE,25,0.0,0.0,98,0.00,,,0.00,Wunderground v.1.15,2013-01-10 13:04:00,
2013-01-10 08:14:00,48.3,47.8,30.37,NNE,25,0.0,0.0,98,0.00,,,0.00,Wunderground v.1.15,2013-01-10 13:14:00,
2013-01-10 08:24:00,49.0,48.5,30.37,NNE,25,0.0,0.0,98,0.00,,,0.00,Wunderground v.1.15,2013-01-10 13:24:00,
2013-01-10 08:34:00,49.7,49.4,30.38,NNE,25,0.0,0.0,99,0.00,,,0.00,Wunderground v.1.15,2013-01-10 13:34:00,
2013-01-10 08:44:00,50.3,50.0,30.38,NNE,25,0.0,0.0,99,0.00,,,0.00,Wunderground v.1.15,2013-01-10 13:44:00,
2013-01-10 08:54:00,50.8,50.5,30.38,NNE,25,0.0,0.0,99,0.00,,,0.00,Wunderground v.1.15,2013-01-10 13:54:00,
2013-01-10 09:04:00,52.3,52.0,30.38,NNE,25,0.0,0.0,99,0.00,,,0.00,Wunderground v.1.15,2013-01-10 14:04:00,
2013-01-10 09:14:00,52.8,52.5,30.38,NNE,25,0.0,0.0,99,0.00,,,0.00,Wunderground v.1.15,2013-01-10 14:14:00,
2013-01-10 09:24:00,53.8,53.5,30.38,NNE,25,0.0,0.0,99,0.00,,,0.00,Wunderground v.1.15,2013-01-10 14:24:00,
2013-01-10 09:34:00,55.6,55.3,30.38,NNE,25,0.0,0.0,99,0.00,,,0.00,Wunderground v.1.15,2013-01-10 14:34:00,
2013-01-10 09:44:00,57.8,57.2,30.38,NNE,25,0.0,0.0,98,0.00,,,0.00,Wunderground v.1.15,2013-01-10 14:44:00,
2013-01-10 09:54:00,59.2,57.8,30.38,NE,34,0.0,1.0,95,0.00,,,0.00,Wunderground v.1.15,2013-01-10 14:54:00,
2013-01-10 10:05:00,62.1,59.1,30.38,ENE,63,1.0,1.0,90,0.00,,,0.00,Wunderground v.1.15,2013-01-10 15:05:00,
2013-01-10 10:15:00,63.8,59.5,30.38,East,84,1.0,1.0,86,0.00,,,0.00,Wunderground v.1.15,2013-01-10 15:15:00,
2013-01-10 10:25:00,65.1,60.1,30.38,East,98,1.0,2.0,84,0.00,,,0.00,Wunderground v.1.15,2013-01-10 15:25:00,
2013-01-10 10:35:00,66.4,60.4,30.37,ENE,69,2.0,5.0,81,0.00,,,0.00,Wunderground v.1.15,2013-01-10 15:35:00,
2013-01-10 10:45:00,66.5,59.8,30.37,ESE,110,3.0,3.0,79,0.00,,,0.00,Wunderground v.1.15,2013-01-10 15:45:00,
2013-01-10 10:54:00,67.4,60.3,30.37,East,92,3.0,3.0,78,0.00,,,0.00,Wunderground v.1.15,2013-01-10 15:54:00,
2013-01-10 11:04:00,68.4,60.9,30.37,ESE,109,2.0,2.0,77,0.00,,,0.00,Wunderground v.1.15,2013-01-10 16:04:00,
2013-01-10 11:14:00,69.3,61.4,30.37,ENE,57,1.0,1.0,76,0.00,,,0.00,Wunderground v.1.15,2013-01-10 16:14:00,
2013-01-10 11:24:00,70.5,62.2,30.36,NE,42,1.0,1.0,75,0.00,,,0.00,Wunderground v.1.15,2013-01-10 16:24:00,
2013-01-10 11:34:00,71.0,61.1,30.35,SE,127,2.0,2.0,71,0.00,,,0.00,Wunderground v.1.15,2013-01-10 16:34:00,
2013-01-10 11:44:00,70.9,60.6,30.35,ESE,122,3.0,3.0,70,0.00,,,0.00,Wunderground v.1.15,2013-01-10 16:44:00,
2013-01-10 11:53:00,71.1,60.4,30.34,ESE,118,3.0,3.0,69,0.00,,,0.00,Wunderground v.1.15,2013-01-10 16:53:00,
2013-01-10 12:05:00,71.6,60.1,30.33,SSW,202,2.0,2.0,67,0.00,,,0.00,Wunderground v.1.15,2013-01-10 17:05:00,
2013-01-10 12:14:00,72.4,60.0,30.33,ESE,102,3.0,5.0,65,0.00,,,0.00,Wunderground v.1.15,2013-01-10 17:14:00,
2013-01-10 12:24:00,72.6,59.7,30.32,North,350,2.0,2.0,64,0.00,,,0.00,Wunderground v.1.15,2013-01-10 17:24:00,
2013-01-10 12:34:00,72.6,59.3,30.32,NE,55,2.0,2.0,63,0.00,,,0.00,Wunderground v.1.15,2013-01-10 17:34:00,
2013-01-10 12:44:00,72.9,58.7,30.32,SSE,148,1.0,2.0,61,0.00,,,0.00,Wunderground v.1.15,2013-01-10 17:44:00,
2013-01-10 12:54:00,73.1,58.4,30.32,SE,142,2.0,2.0,60,0.00,,,0.00,Wunderground v.1.15,2013-01-10 17:54:00,
2013-01-10 13:03:00,73.1,58.4,30.32,SE,136,2.0,3.0,60,0.00,,,0.00,Wunderground v.1.15,2013-01-10 18:03:00,
2013-01-10 13:13:00,73.6,58.9,30.32,East,94,2.0,8.0,60,0.00,,,0.00,Wunderground v.1.15,2013-01-10 18:13:00,
2013-01-10 13:23:00,74.1,58.4,30.31,East,99,4.0,5.0,58,0.00,,,0.00,Wunderground v.1.15,2013-01-10 18:23:00,
2013-01-10 13:33:00,74.5,58.3,30.31,ESE,105,2.0,8.0,57,0.00,,,0.00,Wunderground v.1.15,2013-01-10 18:33:00,
2013-01-10 13:43:00,73.5,58.3,30.30,ESE,122,4.0,4.0,59,0.00,,,0.00,Wunderground v.1.15,2013-01-10 18:43:00,
2013-01-10 13:55:00,73.7,58.0,30.30,ESE,115,3.0,4.0,58,0.00,,,0.00,Wunderground v.1.15,2013-01-10 18:55:00,
2013-01-10 14:05:00,73.5,58.3,30.29,ESE,104,2.0,2.0,59,0.00,,,0.00,Wunderground v.1.15,2013-01-10 19:05:00,
2013-01-10 14:15:00,74.0,58.3,30.29,South,189,3.0,3.0,58,0.00,,,0.00,Wunderground v.1.15,2013-01-10 19:15:00,
2013-01-10 14:25:00,73.3,58.1,30.29,ESE,121,5.0,5.0,59,0.00,,,0.00,Wunderground v.1.15,2013-01-10 19:25:00,
2013-01-10 14:35:00,73.0,57.8,30.27,ESE,118,3.0,3.0,59,0.00,,,0.00,Wunderground v.1.15,2013-01-10 19:35:00,
2013-01-10 14:44:00,72.8,57.6,30.27,ESE,112,2.0,2.0,59,0.00,,,0.00,Wunderground v.1.15,2013-01-10 19:44:00,
2013-01-10 14:54:00,72.9,58.2,30.27,ENE,77,2.0,2.0,60,0.00,,,0.00,Wunderground v.1.15,2013-01-10 19:54:00,
2013-01-10 15:04:00,73.2,58.5,30.27,ESE,105,2.0,2.0,60,0.00,,,0.00,Wunderground v.1.15,2013-01-10 20:04:00,
2013-01-10 15:14:00,73.6,58.4,30.27,East,84,2.0,3.0,59,0.00,,,0.00,Wunderground v.1.15,2013-01-10 20:14:00,
2013-01-10 15:24:00,74.2,58.9,30.27,SSE,156,4.0,4.0,59,0.00,,,0.00,Wunderground v.1.15,2013-01-10 20:24:00,
2013-01-10 15:34:00,74.2,58.9,30.27,ENE,61,4.0,9.0,59,0.00,,,0.00,Wunderground v.1.15,2013-01-10 20:34:00,
2013-01-10 15:44:00,74.2,58.5,30.27,East,93,4.0,4.0,58,0.00,,,0.00,Wunderground v.1.15,2013-01-10 20:44:00,
2013-01-10 15:53:00,73.8,59.0,30.27,ESE,113,3.0,3.0,60,0.00,,,0.00,Wunderground v.1.15,2013-01-10 20:53:00,
2013-01-10 16:03:00,73.3,58.6,30.27,ESE,103,3.0,3.0,60,0.00,,,0.00,Wunderground v.1.15,2013-01-10 21:03:00,
2013-01-10 16:13:00,73.1,59.3,30.27,East,84,2.0,6.0,62,0.00,,,0.00,Wunderground v.1.15,2013-01-10 21:13:00,
2013-01-10 16:23:00,72.9,59.6,30.27,ESE,105,2.0,2.0,63,0.00,,,0.00,Wunderground v.1.15,2013-01-10 21:23:00,
2013-01-10 16:33:00,72.6,59.3,30.27,East,96,2.0,2.0,63,0.00,,,0.00,Wunderground v.1.15,2013-01-10 21:33:00,
2013-01-10 16:42:00,72.4,59.5,30.28,East,98,2.0,3.0,64,0.00,,,0.00,Wunderground v.1.15,2013-01-10 21:42:00,
2013-01-10 16:52:00,72.0,59.6,30.29,East,94,2.0,3.0,65,0.00,,,0.00,Wunderground v.1.15,2013-01-10 21:52:00,
2013-01-10 17:02:00,71.6,59.6,30.29,East,97,1.0,1.0,66,0.00,,,0.00,Wunderground v.1.15,2013-01-10 22:02:00,
2013-01-10 17:12:00,71.3,59.4,30.29,East,97,0.0,3.0,66,0.00,,,0.00,Wunderground v.1.15,2013-01-10 22:12:00,
2013-01-10 17:22:00,70.8,59.3,30.29,ESE,118,3.0,3.0,67,0.00,,,0.00,Wunderground v.1.15,2013-01-10 22:22:00,
2013-01-10 17:32:00,70.5,59.4,30.29,East,92,2.0,2.0,68,0.00,,,0.00,Wunderground v.1.15,2013-01-10 22:32:00,
2013-01-10 17:41:00,70.4,59.3,30.29,East,93,0.0,0.0,68,0.00,,,0.00,Wunderground v.1.15,2013-01-10 22:41:00,
2013-01-10 17:51:00,70.4,58.9,30.29,East,93,2.0,2.0,67,0.00,,,0.00,Wunderground v.1.15,2013-01-10 22:51:00,
2013-01-10 18:01:00,69.9,58.9,30.29,ESE,116,2.0,2.0,68,0.00,,,0.00,Wunderground v.1.15,2013-01-10 23:01:00,
2013-01-10 18:11:00,69.5,58.5,30.30,ESE,120,1.0,1.0,68,0.00,,,0.00,Wunderground v.1.15,2013-01-10 23:11:00,
2013-01-10 18:21:00,69.4,58.8,30.30,East,101,1.0,1.0,69,0.00,,,0.00,Wunderground v.1.15,2013-01-10 23:21:00,
2013-01-10 18:31:00,69.1,59.3,30.30,ESE,113,2.0,7.0,71,0.00,,,0.00,Wunderground v.1.15,2013-01-10 23:31:00,
2013-01-10 18:41:00,67.7,59.9,30.31,SE,133,4.0,4.0,76,0.00,,,0.00,Wunderground v.1.15,2013-01-10 23:41:00,
2013-01-10 18:50:00,66.2,59.8,30.31,East,101,1.0,1.0,80,0.00,,,0.00,Wunderground v.1.15,2013-01-10 23:50:00,
2013-01-10 19:00:00,65.6,60.0,30.31,ESE,106,3.0,3.0,82,0.00,,,0.00,Wunderground v.1.15,2013-01-11 00:00:00,
2013-01-10 19:10:00,65.0,60.4,30.31,East,96,2.0,2.0,85,0.00,,,0.00,Wunderground v.1.15,2013-01-11 00:10:00,
2013-01-10 19:20:00,64.2,60.2,30.30,East,96,0.0,0.0,87,0.00,,,0.00,Wunderground v.1.15,2013-01-11 00:20:00,
2013-01-10 19:30:00,63.6,60.0,30.30,East,97,0.0,0.0,88,0.00,,,0.00,Wunderground v.1.15,2013-01-11 00:30:00,
2013-01-10 19:40:00,63.1,60.1,30.30,East,97,0.0,0.0,90,0.00,,,0.00,Wunderground v.1.15,2013-01-11 00:40:00,
2013-01-10 19:49:00,62.8,60.1,30.30,East,97,0.0,0.0,91,0.00,,,0.00,Wunderground v.1.15,2013-01-11 00:49:00,
2013-01-10 19:59:00,62.4,60.0,30.30,South,173,0.0,4.0,92,0.00,,,0.00,Wunderground v.1.15,2013-01-11 00:59:00,
2013-01-10 20:09:00,62.2,60.2,30.30,SSE,159,0.0,0.0,93,0.00,,,0.01,Wunderground v.1.15,2013-01-11 01:09:00,
2013-01-10 20:19:00,61.9,59.9,30.30,SSE,159,0.0,0.0,93,0.00,,,0.01,Wunderground v.1.15,2013-01-11 01:19:00,
2013-01-10 20:29:00,61.7,59.7,30.30,SSE,159,0.0,0.0,93,0.00,,,0.01,Wunderground v.1.15,2013-01-11 01:29:00,
2013-01-10 20:39:00,61.9,59.9,30.30,East,98,1.0,1.0,93,0.00,,,0.01,Wunderground v.1.15,2013-01-11 01:39:00,
2013-01-10 20:49:00,62.5,60.1,30.30,East,97,2.0,2.0,92,0.00,,,0.01,Wunderground v.1.15,2013-01-11 01:49:00,
2013-01-10 20:58:00,63.0,60.3,30.30,ESE,102,3.0,3.0,91,0.00,,,0.01,Wunderground v.1.15,2013-01-11 01:58:00,
2013-01-10 21:08:00,63.2,60.2,30.30,ESE,108,2.0,3.0,90,0.00,,,0.01,Wunderground v.1.15,2013-01-11 02:08:00,
2013-01-10 21:18:00,63.2,60.2,30.30,ESE,111,2.0,2.0,90,0.00,,,0.01,Wunderground v.1.15,2013-01-11 02:18:00,
2013-01-10 21:28:00,63.1,60.1,30.29,ESE,119,2.0,2.0,90,0.00,,,0.01,Wunderground v.1.15,2013-01-11 02:28:00,
2013-01-10 21:38:00,63.0,60.3,30.30,ESE,106,1.0,2.0,91,0.00,,,0.01,Wunderground v.1.15,2013-01-11 02:38:00,
2013-01-10 21:47:00,62.8,60.1,30.30,ESE,107,1.0,1.0,91,0.00,,,0.01,Wunderground v.1.15,2013-01-11 02:47:00,
2013-01-10 21:57:00,62.6,59.9,30.29,East,97,1.0,2.0,91,0.00,,,0.01,Wunderground v.1.15,2013-01-11 02:57:00,
2013-01-10 22:07:00,62.4,60.0,30.28,ESE,103,1.0,3.0,92,0.00,,,0.01,Wunderground v.1.15,2013-01-11 03:07:00,
2013-01-10 22:17:00,62.2,59.8,30.28,ESE,109,1.0,1.0,92,0.00,,,0.01,Wunderground v.1.15,2013-01-11 03:17:00,
2013-01-10 22:27:00,62.0,59.6,30.28,East,94,2.0,7.0,92,0.00,,,0.01,Wunderground v.1.15,2013-01-11 03:27:00,
2013-01-10 22:37:00,61.8,59.8,30.27,East,101,3.0,3.0,93,0.00,,,0.01,Wunderground v.1.15,2013-01-11 03:37:00,
2013-01-10 22:46:00,61.7,59.7,30.27,East,96,2.0,2.0,93,0.00,,,0.01,Wunderground v.1.15,2013-01-11 03:46:00,
2013-01-10 22:56:00,61.6,59.6,30.27,East,89,3.0,3.0,93,0.00,,,0.01,Wunderground v.1.15,2013-01-11 03:56:00,
2013-01-10 23:06:00,61.5,59.8,30.26,East,96,2.0,2.0,94,0.00,,,0.01,Wunderground v.1.15,2013-01-11 04:06:00,
2013-01-10 23:16:00,61.4,59.7,30.26,East,98,4.0,4.0,94,0.00,,,0.01,Wunderground v.1.15,2013-01-11 04:16:00,
2013-01-10 23:26:00,61.3,59.6,30.26,ESE,102,3.0,3.0,94,0.00,,,0.01,Wunderground v.1.15,2013-01-11 04:26:00,
2013-01-10 23:36:00,61.2,59.5,30.24,ESE,106,3.0,3.0,94,0.00,,,0.01,Wunderground v.1.15,2013-01-11 04:36:00,
2013-01-10 23:46:00,61.1,59.7,30.24,ESE,106,3.0,4.0,95,0.00,,,0.01,Wunderground v.1.15,2013-01-11 04:46:00,
2013-01-10 23:55:00,61.0,59.6,30.24,East,100,2.0,2.0,95,0.00,,,0.01,Wunderground v.1.15,2013-01-11 04:55:00,